sensor_id;sensor_type;location;lat;lon;timestamp;temperature;humidity
13494;DHT22;6819;50.886;4.332;2022-09-09T00:00:38;14.70;99.90
13494;DHT22;6819;50.886;4.332;2022-09-09T00:03:16;14.70;99.90
13494;DHT22;6819;50.886;4.332;2022-09-09T00:06:16;14.70;99.90
13494;DHT22;6819;50.886;4.332;2022-09-09T00:09:08;14.70;99.90
13494;DHT22;6819;50.886;4.332;2022-09-09T00:11:58;14.70;99.90
13494;DHT22;6819;50.886;4.332;2022-09-09T00:23:28;14.60;99.90
13494;DHT22;6819;50.886;4.332;2022-09-09T00:28:55;14.70;99.90
13494;DHT22;6819;50.886;4.332;2022-09-09T00:31:28;14.70;99.90
13494;DHT22;6819;50.886;4.332;2022-09-09T00:34:29;14.60;99.90
13494;DHT22;6819;50.886;4.332;2022-09-09T00:36:50;14.70;99.90
13494;DHT22;6819;50.886;4.332;2022-09-09T00:39:46;14.70;99.90
13494;DHT22;6819;50.886;4.332;2022-09-09T00:42:16;14.70;99.90
13494;DHT22;6819;50.886;4.332;2022-09-09T00:47:34;14.80;99.90
13494;DHT22;6819;50.886;4.332;2022-09-09T00:50:26;14.80;99.90
13494;DHT22;6819;50.886;4.332;2022-09-09T00:58:07;14.80;99.90
13494;DHT22;6819;50.886;4.332;2022-09-09T01:00:54;14.80;99.90
13494;DHT22;6819;50.886;4.332;2022-09-09T01:22:19;14.90;99.90
13494;DHT22;6819;50.886;4.332;2022-09-09T01:27:51;15.00;99.90
13494;DHT22;6819;50.886;4.332;2022-09-09T01:30:18;14.90;99.90
13494;DHT22;6819;50.886;4.332;2022-09-09T01:32:46;15.00;99.90
13494;DHT22;6819;50.886;4.332;2022-09-09T01:37:47;15.00;99.90
13494;DHT22;6819;50.886;4.332;2022-09-09T01:40:13;15.00;99.90
13494;DHT22;6819;50.886;4.332;2022-09-09T01:42:39;14.90;99.90
13494;DHT22;6819;50.886;4.332;2022-09-09T01:45:05;14.90;99.90
13494;DHT22;6819;50.886;4.332;2022-09-09T01:47:31;14.90;99.90
13494;DHT22;6819;50.886;4.332;2022-09-09T01:49:56;15.00;99.90
13494;DHT22;6819;50.886;4.332;2022-09-09T01:52:22;15.00;99.90
13494;DHT22;6819;50.886;4.332;2022-09-09T01:54:48;15.00;99.90
13494;DHT22;6819;50.886;4.332;2022-09-09T01:57:21;15.00;99.90
13494;DHT22;6819;50.886;4.332;2022-09-09T02:00:00;15.00;99.90
13494;DHT22;6819;50.886;4.332;2022-09-09T02:02:32;15.00;99.90
13494;DHT22;6819;50.886;4.332;2022-09-09T02:05:17;15.00;99.90
13494;DHT22;6819;50.886;4.332;2022-09-09T02:07:50;15.00;99.90
13494;DHT22;6819;50.886;4.332;2022-09-09T02:12:57;15.00;99.90
13494;DHT22;6819;50.886;4.332;2022-09-09T02:15:46;15.00;99.90
13494;DHT22;6819;50.886;4.332;2022-09-09T02:18:13;15.00;99.90
13494;DHT22;6819;50.886;4.332;2022-09-09T02:20:41;15.00;99.90
13494;DHT22;6819;50.886;4.332;2022-09-09T02:23:08;15.00;99.90
13494;DHT22;6819;50.886;4.332;2022-09-09T02:25:36;15.00;99.90
13494;DHT22;6819;50.886;4.332;2022-09-09T02:28:06;15.00;99.90
13494;DHT22;6819;50.886;4.332;2022-09-09T02:30:34;15.00;99.90
13494;DHT22;6819;50.886;4.332;2022-09-09T02:33:03;15.00;99.90
13494;DHT22;6819;50.886;4.332;2022-09-09T02:35:32;15.00;99.90
13494;DHT22;6819;50.886;4.332;2022-09-09T02:38:07;15.00;99.90
13494;DHT22;6819;50.886;4.332;2022-09-09T02:40:33;15.00;99.90
13494;DHT22;6819;50.886;4.332;2022-09-09T02:42:59;15.00;99.90
13494;DHT22;6819;50.886;4.332;2022-09-09T02:45:36;15.10;99.90
13494;DHT22;6819;50.886;4.332;2022-09-09T02:51:08;15.10;99.90
13494;DHT22;6819;50.886;4.332;2022-09-09T02:56:17;15.10;99.90
13494;DHT22;6819;50.886;4.332;2022-09-09T02:58:43;15.10;99.90
13494;DHT22;6819;50.886;4.332;2022-09-09T03:01:09;15.10;99.90
13494;DHT22;6819;50.886;4.332;2022-09-09T03:03:35;15.10;99.90
13494;DHT22;6819;50.886;4.332;2022-09-09T03:06:01;15.10;99.90
13494;DHT22;6819;50.886;4.332;2022-09-09T03:08:27;15.10;99.90
13494;DHT22;6819;50.886;4.332;2022-09-09T03:10:54;15.10;99.90
13494;DHT22;6819;50.886;4.332;2022-09-09T03:13:20;15.10;99.90
13494;DHT22;6819;50.886;4.332;2022-09-09T03:15:47;15.10;99.90
13494;DHT22;6819;50.886;4.332;2022-09-09T03:18:14;15.10;99.90
13494;DHT22;6819;50.886;4.332;2022-09-09T03:20:39;15.00;99.90
13494;DHT22;6819;50.886;4.332;2022-09-09T03:23:07;15.00;99.90
13494;DHT22;6819;50.886;4.332;2022-09-09T03:25:33;15.00;99.90
13494;DHT22;6819;50.886;4.332;2022-09-09T03:27:59;15.10;99.90
13494;DHT22;6819;50.886;4.332;2022-09-09T03:30:26;15.00;99.90
13494;DHT22;6819;50.886;4.332;2022-09-09T03:32:52;15.00;99.90
13494;DHT22;6819;50.886;4.332;2022-09-09T03:35:17;15.00;99.90
13494;DHT22;6819;50.886;4.332;2022-09-09T03:37:43;15.00;99.90
13494;DHT22;6819;50.886;4.332;2022-09-09T03:40:10;15.00;99.90
13494;DHT22;6819;50.886;4.332;2022-09-09T03:42:36;15.00;99.90
13494;DHT22;6819;50.886;4.332;2022-09-09T03:45:04;15.00;99.90
13494;DHT22;6819;50.886;4.332;2022-09-09T03:47:30;15.00;99.90
13494;DHT22;6819;50.886;4.332;2022-09-09T03:49:56;15.00;99.90
13494;DHT22;6819;50.886;4.332;2022-09-09T03:52:21;15.00;99.90
13494;DHT22;6819;50.886;4.332;2022-09-09T03:54:50;15.00;99.90
13494;DHT22;6819;50.886;4.332;2022-09-09T03:57:16;15.10;99.90
13494;DHT22;6819;50.886;4.332;2022-09-09T03:59:43;15.00;99.90
13494;DHT22;6819;50.886;4.332;2022-09-09T04:02:08;15.10;99.90
13494;DHT22;6819;50.886;4.332;2022-09-09T04:04:34;15.10;99.90
13494;DHT22;6819;50.886;4.332;2022-09-09T04:07:00;15.10;99.90
13494;DHT22;6819;50.886;4.332;2022-09-09T04:09:26;15.10;99.90
13494;DHT22;6819;50.886;4.332;2022-09-09T04:11:51;15.10;99.90
13494;DHT22;6819;50.886;4.332;2022-09-09T04:14:18;15.20;99.90
13494;DHT22;6819;50.886;4.332;2022-09-09T04:16:44;15.10;99.90
13494;DHT22;6819;50.886;4.332;2022-09-09T04:19:10;15.20;99.90
13494;DHT22;6819;50.886;4.332;2022-09-09T04:21:42;15.20;99.90
13494;DHT22;6819;50.886;4.332;2022-09-09T04:24:08;15.10;99.90
13494;DHT22;6819;50.886;4.332;2022-09-09T04:26:35;15.10;99.90
13494;DHT22;6819;50.886;4.332;2022-09-09T04:29:02;15.10;99.90
13494;DHT22;6819;50.886;4.332;2022-09-09T04:31:28;15.10;99.90
13494;DHT22;6819;50.886;4.332;2022-09-09T04:33:54;15.10;99.90
13494;DHT22;6819;50.886;4.332;2022-09-09T04:36:20;15.10;99.90
13494;DHT22;6819;50.886;4.332;2022-09-09T04:38:46;15.00;99.90
13494;DHT22;6819;50.886;4.332;2022-09-09T04:41:14;15.00;99.90
13494;DHT22;6819;50.886;4.332;2022-09-09T04:43:40;15.10;99.90
13494;DHT22;6819;50.886;4.332;2022-09-09T04:46:06;15.10;99.90
13494;DHT22;6819;50.886;4.332;2022-09-09T04:48:32;15.00;99.90
13494;DHT22;6819;50.886;4.332;2022-09-09T04:51:05;15.00;99.90
13494;DHT22;6819;50.886;4.332;2022-09-09T04:53:32;15.00;99.90
13494;DHT22;6819;50.886;4.332;2022-09-09T04:58:32;15.00;99.90
13494;DHT22;6819;50.886;4.332;2022-09-09T05:01:28;15.10;99.90
13494;DHT22;6819;50.886;4.332;2022-09-09T05:03:56;15.10;99.90
13494;DHT22;6819;50.886;4.332;2022-09-09T05:06:22;15.10;99.90
13494;DHT22;6819;50.886;4.332;2022-09-09T05:08:48;15.10;99.90
13494;DHT22;6819;50.886;4.332;2022-09-09T05:11:22;15.10;99.90
13494;DHT22;6819;50.886;4.332;2022-09-09T05:13:50;15.10;99.90
13494;DHT22;6819;50.886;4.332;2022-09-09T05:16:16;15.10;99.90
13494;DHT22;6819;50.886;4.332;2022-09-09T05:18:43;15.10;99.90
13494;DHT22;6819;50.886;4.332;2022-09-09T05:21:10;15.10;99.90
13494;DHT22;6819;50.886;4.332;2022-09-09T05:23:36;15.20;99.90
13494;DHT22;6819;50.886;4.332;2022-09-09T05:26:04;15.10;99.90
13494;DHT22;6819;50.886;4.332;2022-09-09T05:28:29;15.20;99.90
13494;DHT22;6819;50.886;4.332;2022-09-09T05:31:00;15.20;99.90
13494;DHT22;6819;50.886;4.332;2022-09-09T05:33:27;15.20;99.90
13494;DHT22;6819;50.886;4.332;2022-09-09T05:36:03;15.20;99.90
13494;DHT22;6819;50.886;4.332;2022-09-09T05:38:30;15.20;99.90
13494;DHT22;6819;50.886;4.332;2022-09-09T05:40:56;15.20;99.90
13494;DHT22;6819;50.886;4.332;2022-09-09T05:43:23;15.20;99.90
13494;DHT22;6819;50.886;4.332;2022-09-09T05:46:02;15.20;99.90
13494;DHT22;6819;50.886;4.332;2022-09-09T05:48:30;15.20;99.90
13494;DHT22;6819;50.886;4.332;2022-09-09T05:50:56;15.20;99.90
13494;DHT22;6819;50.886;4.332;2022-09-09T05:53:22;15.20;99.90
13494;DHT22;6819;50.886;4.332;2022-09-09T05:55:47;15.20;99.90
13494;DHT22;6819;50.886;4.332;2022-09-09T05:58:13;15.30;99.90
13494;DHT22;6819;50.886;4.332;2022-09-09T06:00:40;15.20;99.90
13494;DHT22;6819;50.886;4.332;2022-09-09T06:03:06;15.20;99.90
13494;DHT22;6819;50.886;4.332;2022-09-09T06:05:32;15.30;99.90
13494;DHT22;6819;50.886;4.332;2022-09-09T06:07:58;15.30;99.90
13494;DHT22;6819;50.886;4.332;2022-09-09T06:10:23;15.40;99.90
13494;DHT22;6819;50.886;4.332;2022-09-09T06:12:52;15.40;99.90
13494;DHT22;6819;50.886;4.332;2022-09-09T06:15:18;15.40;99.90
13494;DHT22;6819;50.886;4.332;2022-09-09T06:17:43;15.50;99.90
13494;DHT22;6819;50.886;4.332;2022-09-09T06:20:10;15.50;99.90
13494;DHT22;6819;50.886;4.332;2022-09-09T06:22:38;15.50;99.90
13494;DHT22;6819;50.886;4.332;2022-09-09T06:25:04;15.60;99.90
13494;DHT22;6819;50.886;4.332;2022-09-09T06:27:30;15.70;99.90
13494;DHT22;6819;50.886;4.332;2022-09-09T06:29:56;15.70;99.90
13494;DHT22;6819;50.886;4.332;2022-09-09T06:32:22;15.60;99.90
13494;DHT22;6819;50.886;4.332;2022-09-09T06:34:48;15.60;99.90
13494;DHT22;6819;50.886;4.332;2022-09-09T06:37:14;15.70;99.90
13494;DHT22;6819;50.886;4.332;2022-09-09T06:39:40;15.70;99.90
13494;DHT22;6819;50.886;4.332;2022-09-09T06:42:06;15.70;99.90
13494;DHT22;6819;50.886;4.332;2022-09-09T06:44:34;15.70;99.90
13494;DHT22;6819;50.886;4.332;2022-09-09T06:46:59;15.70;99.90
13494;DHT22;6819;50.886;4.332;2022-09-09T06:49:25;15.70;99.90
13494;DHT22;6819;50.886;4.332;2022-09-09T06:51:51;15.70;99.90
13494;DHT22;6819;50.886;4.332;2022-09-09T06:54:17;15.80;99.90
13494;DHT22;6819;50.886;4.332;2022-09-09T06:56:43;15.80;99.90
13494;DHT22;6819;50.886;4.332;2022-09-09T06:59:11;15.80;99.90
13494;DHT22;6819;50.886;4.332;2022-09-09T07:01:42;15.80;99.90
13494;DHT22;6819;50.886;4.332;2022-09-09T07:04:12;15.80;99.90
13494;DHT22;6819;50.886;4.332;2022-09-09T07:06:43;15.90;99.90
13494;DHT22;6819;50.886;4.332;2022-09-09T07:09:11;15.90;99.90
13494;DHT22;6819;50.886;4.332;2022-09-09T07:11:44;16.20;99.90
13494;DHT22;6819;50.886;4.332;2022-09-09T07:14:11;16.30;99.90
13494;DHT22;6819;50.886;4.332;2022-09-09T07:16:43;16.30;99.90
13494;DHT22;6819;50.886;4.332;2022-09-09T07:19:10;16.30;99.90
13494;DHT22;6819;50.886;4.332;2022-09-09T07:21:36;16.30;99.90
13494;DHT22;6819;50.886;4.332;2022-09-09T07:24:02;16.50;99.90
13494;DHT22;6819;50.886;4.332;2022-09-09T07:26:30;16.40;99.90
13494;DHT22;6819;50.886;4.332;2022-09-09T07:28:56;16.40;99.90
13494;DHT22;6819;50.886;4.332;2022-09-09T07:31:28;16.40;99.90
13494;DHT22;6819;50.886;4.332;2022-09-09T07:33:55;16.50;99.90
13494;DHT22;6819;50.886;4.332;2022-09-09T07:36:24;16.50;99.90
13494;DHT22;6819;50.886;4.332;2022-09-09T07:38:56;16.60;99.90
13494;DHT22;6819;50.886;4.332;2022-09-09T07:41:25;16.30;99.90
13494;DHT22;6819;50.886;4.332;2022-09-09T07:43:52;16.10;99.90
13494;DHT22;6819;50.886;4.332;2022-09-09T07:46:23;16.00;99.90
13494;DHT22;6819;50.886;4.332;2022-09-09T07:48:51;15.90;99.90
13494;DHT22;6819;50.886;4.332;2022-09-09T07:51:23;16.00;99.90
13494;DHT22;6819;50.886;4.332;2022-09-09T07:53:53;16.00;99.90
13494;DHT22;6819;50.886;4.332;2022-09-09T07:56:20;16.00;99.90
13494;DHT22;6819;50.886;4.332;2022-09-09T07:58:49;16.00;99.90
13494;DHT22;6819;50.886;4.332;2022-09-09T08:01:19;16.00;99.90
13494;DHT22;6819;50.886;4.332;2022-09-09T08:03:46;16.10;99.90
13494;DHT22;6819;50.886;4.332;2022-09-09T08:06:12;16.10;99.90
13494;DHT22;6819;50.886;4.332;2022-09-09T08:08:39;16.20;99.90
13494;DHT22;6819;50.886;4.332;2022-09-09T08:11:14;16.30;99.90
13494;DHT22;6819;50.886;4.332;2022-09-09T08:13:41;16.30;99.90
13494;DHT22;6819;50.886;4.332;2022-09-09T08:16:08;16.30;99.90
13494;DHT22;6819;50.886;4.332;2022-09-09T08:18:34;16.40;99.90
13494;DHT22;6819;50.886;4.332;2022-09-09T08:21:21;16.50;99.90
13494;DHT22;6819;50.886;4.332;2022-09-09T08:23:47;16.40;99.90
13494;DHT22;6819;50.886;4.332;2022-09-09T08:26:15;16.30;99.90
13494;DHT22;6819;50.886;4.332;2022-09-09T08:28:43;16.20;99.90
13494;DHT22;6819;50.886;4.332;2022-09-09T08:31:11;16.30;99.90
13494;DHT22;6819;50.886;4.332;2022-09-09T08:33:38;16.30;99.90
13494;DHT22;6819;50.886;4.332;2022-09-09T08:36:05;16.40;99.90
13494;DHT22;6819;50.886;4.332;2022-09-09T08:38:32;16.40;99.90
13494;DHT22;6819;50.886;4.332;2022-09-09T08:43:58;16.30;99.90
13494;DHT22;6819;50.886;4.332;2022-09-09T08:51:56;16.10;99.90
13494;DHT22;6819;50.886;4.332;2022-09-09T08:54:23;16.10;99.90
13494;DHT22;6819;50.886;4.332;2022-09-09T08:56:49;16.10;99.90
13494;DHT22;6819;50.886;4.332;2022-09-09T08:59:17;16.10;99.90
13494;DHT22;6819;50.886;4.332;2022-09-09T09:10:18;16.10;99.90
13494;DHT22;6819;50.886;4.332;2022-09-09T09:12:47;16.10;99.90
13494;DHT22;6819;50.886;4.332;2022-09-09T09:15:23;16.10;99.90
13494;DHT22;6819;50.886;4.332;2022-09-09T09:17:50;16.10;99.90
13494;DHT22;6819;50.886;4.332;2022-09-09T09:20:18;16.10;99.90
13494;DHT22;6819;50.886;4.332;2022-09-09T09:22:52;16.10;99.90
13494;DHT22;6819;50.886;4.332;2022-09-09T09:25:23;16.10;99.90
13494;DHT22;6819;50.886;4.332;2022-09-09T09:30:31;16.10;99.90
13494;DHT22;6819;50.886;4.332;2022-09-09T09:33:18;16.10;99.90
13494;DHT22;6819;50.886;4.332;2022-09-09T09:35:46;16.10;99.90
13494;DHT22;6819;50.886;4.332;2022-09-09T09:38:24;16.10;99.90
13494;DHT22;6819;50.886;4.332;2022-09-09T09:40:55;16.10;99.90
13494;DHT22;6819;50.886;4.332;2022-09-09T09:43:34;16.10;99.90
13494;DHT22;6819;50.886;4.332;2022-09-09T09:46:03;16.20;99.90
13494;DHT22;6819;50.886;4.332;2022-09-09T09:48:29;16.20;99.90
13494;DHT22;6819;50.886;4.332;2022-09-09T09:51:05;16.10;99.90
13494;DHT22;6819;50.886;4.332;2022-09-09T09:53:35;16.20;99.90
13494;DHT22;6819;50.886;4.332;2022-09-09T09:56:10;16.20;99.90
13494;DHT22;6819;50.886;4.332;2022-09-09T10:03:53;16.20;99.90
13494;DHT22;6819;50.886;4.332;2022-09-09T10:06:36;16.20;99.90
13494;DHT22;6819;50.886;4.332;2022-09-09T10:09:17;16.20;99.90
13494;DHT22;6819;50.886;4.332;2022-09-09T10:12:02;16.30;99.90
13494;DHT22;6819;50.886;4.332;2022-09-09T10:23:42;16.60;99.90
13494;DHT22;6819;50.886;4.332;2022-09-09T10:26:08;16.70;99.90
13494;DHT22;6819;50.886;4.332;2022-09-09T10:37:16;17.00;99.90
13494;DHT22;6819;50.886;4.332;2022-09-09T10:39:51;17.10;99.90
13494;DHT22;6819;50.886;4.332;2022-09-09T10:42:25;17.20;99.90
13494;DHT22;6819;50.886;4.332;2022-09-09T10:56:13;17.50;99.90
13494;DHT22;6819;50.886;4.332;2022-09-09T10:58:47;17.60;99.90
13494;DHT22;6819;50.886;4.332;2022-09-09T11:03:49;17.60;99.90
13494;DHT22;6819;50.886;4.332;2022-09-09T11:06:24;17.70;99.90
13494;DHT22;6819;50.886;4.332;2022-09-09T11:08:52;17.70;99.90
13494;DHT22;6819;50.886;4.332;2022-09-09T11:11:42;17.60;99.90
13494;DHT22;6819;50.886;4.332;2022-09-09T11:14:51;17.60;99.90
13494;DHT22;6819;50.886;4.332;2022-09-09T11:17:42;17.60;99.90
13494;DHT22;6819;50.886;4.332;2022-09-09T11:20:14;17.50;99.90
13494;DHT22;6819;50.886;4.332;2022-09-09T11:22:54;17.70;99.90
13494;DHT22;6819;50.886;4.332;2022-09-09T11:25:26;17.70;99.90
13494;DHT22;6819;50.886;4.332;2022-09-09T11:31:34;17.90;99.90
13494;DHT22;6819;50.886;4.332;2022-09-09T11:37:05;17.90;99.90
13494;DHT22;6819;50.886;4.332;2022-09-09T11:39:59;17.80;99.90
13494;DHT22;6819;50.886;4.332;2022-09-09T11:42:30;17.60;99.90
13494;DHT22;6819;50.886;4.332;2022-09-09T11:44:55;17.70;99.90
13494;DHT22;6819;50.886;4.332;2022-09-09T11:50:06;18.00;99.90
13494;DHT22;6819;50.886;4.332;2022-09-09T11:52:46;18.00;99.90
13494;DHT22;6819;50.886;4.332;2022-09-09T11:57:58;17.80;99.90
13494;DHT22;6819;50.886;4.332;2022-09-09T12:00:45;17.80;99.90
13494;DHT22;6819;50.886;4.332;2022-09-09T12:03:50;17.80;99.90
13494;DHT22;6819;50.886;4.332;2022-09-09T12:06:32;17.70;99.90
13494;DHT22;6819;50.886;4.332;2022-09-09T12:11:46;17.70;99.90
13494;DHT22;6819;50.886;4.332;2022-09-09T12:14:35;17.70;99.90
13494;DHT22;6819;50.886;4.332;2022-09-09T12:17:19;17.70;99.90
13494;DHT22;6819;50.886;4.332;2022-09-09T12:19:46;17.70;99.90
13494;DHT22;6819;50.886;4.332;2022-09-09T12:22:31;17.60;99.90
13494;DHT22;6819;50.886;4.332;2022-09-09T12:25:04;17.60;99.90
13494;DHT22;6819;50.886;4.332;2022-09-09T12:27:40;17.70;99.90
13494;DHT22;6819;50.886;4.332;2022-09-09T12:30:10;17.80;99.90
13494;DHT22;6819;50.886;4.332;2022-09-09T12:32:36;17.80;99.90
13494;DHT22;6819;50.886;4.332;2022-09-09T12:40:23;18.00;99.90
13494;DHT22;6819;50.886;4.332;2022-09-09T12:42:49;18.10;99.90
13494;DHT22;6819;50.886;4.332;2022-09-09T12:45:21;18.10;99.90
13494;DHT22;6819;50.886;4.332;2022-09-09T12:50:26;18.30;99.90
13494;DHT22;6819;50.886;4.332;2022-09-09T12:52:58;18.30;99.90
13494;DHT22;6819;50.886;4.332;2022-09-09T12:55:28;18.30;99.90
13494;DHT22;6819;50.886;4.332;2022-09-09T12:57:55;18.30;99.90
13494;DHT22;6819;50.886;4.332;2022-09-09T13:00:24;18.40;99.90
13494;DHT22;6819;50.886;4.332;2022-09-09T13:02:58;18.50;99.90
13494;DHT22;6819;50.886;4.332;2022-09-09T13:05:37;18.60;99.90
13494;DHT22;6819;50.886;4.332;2022-09-09T13:08:06;18.50;99.90
13494;DHT22;6819;50.886;4.332;2022-09-09T13:10:36;18.60;99.90
13494;DHT22;6819;50.886;4.332;2022-09-09T13:13:12;18.50;99.90
13494;DHT22;6819;50.886;4.332;2022-09-09T13:15:39;18.60;99.90
13494;DHT22;6819;50.886;4.332;2022-09-09T13:18:10;18.60;99.90
13494;DHT22;6819;50.886;4.332;2022-09-09T13:20:36;18.80;99.90
13494;DHT22;6819;50.886;4.332;2022-09-09T13:23:02;18.90;99.90
13494;DHT22;6819;50.886;4.332;2022-09-09T13:25:28;18.90;99.90
13494;DHT22;6819;50.886;4.332;2022-09-09T13:28:05;18.80;99.90
13494;DHT22;6819;50.886;4.332;2022-09-09T13:30:35;18.90;99.90
13494;DHT22;6819;50.886;4.332;2022-09-09T13:35:31;18.90;99.90
13494;DHT22;6819;50.886;4.332;2022-09-09T13:37:58;19.10;99.90
13494;DHT22;6819;50.886;4.332;2022-09-09T13:40:25;19.10;99.90
13494;DHT22;6819;50.886;4.332;2022-09-09T13:42:55;19.10;99.90
13494;DHT22;6819;50.886;4.332;2022-09-09T13:45:23;19.10;99.90
13494;DHT22;6819;50.886;4.332;2022-09-09T13:47:53;19.20;99.90
13494;DHT22;6819;50.886;4.332;2022-09-09T13:50:24;19.80;99.90
13494;DHT22;6819;50.886;4.332;2022-09-09T13:52:58;19.90;99.90
13494;DHT22;6819;50.886;4.332;2022-09-09T13:55:27;19.60;99.90
13494;DHT22;6819;50.886;4.332;2022-09-09T13:58:03;19.50;99.90
13494;DHT22;6819;50.886;4.332;2022-09-09T14:00:32;19.40;99.90
13494;DHT22;6819;50.886;4.332;2022-09-09T14:02:59;19.60;99.90
13494;DHT22;6819;50.886;4.332;2022-09-09T14:05:27;19.60;99.90
13494;DHT22;6819;50.886;4.332;2022-09-09T14:07:53;19.50;99.90
13494;DHT22;6819;50.886;4.332;2022-09-09T14:10:19;19.60;99.90
13494;DHT22;6819;50.886;4.332;2022-09-09T14:12:45;20.00;99.90
13494;DHT22;6819;50.886;4.332;2022-09-09T14:15:12;19.80;99.90
13494;DHT22;6819;50.886;4.332;2022-09-09T14:17:37;19.70;99.90
13494;DHT22;6819;50.886;4.332;2022-09-09T14:20:05;19.80;99.90
13494;DHT22;6819;50.886;4.332;2022-09-09T14:22:33;19.90;99.90
13494;DHT22;6819;50.886;4.332;2022-09-09T14:24:58;19.80;99.90
13494;DHT22;6819;50.886;4.332;2022-09-09T14:27:24;20.00;99.90
13494;DHT22;6819;50.886;4.332;2022-09-09T14:29:52;19.90;99.90
13494;DHT22;6819;50.886;4.332;2022-09-09T14:32:18;20.00;99.90
13494;DHT22;6819;50.886;4.332;2022-09-09T14:34:44;20.10;99.90
13494;DHT22;6819;50.886;4.332;2022-09-09T14:37:10;20.40;99.90
13494;DHT22;6819;50.886;4.332;2022-09-09T14:39:35;20.40;99.90
13494;DHT22;6819;50.886;4.332;2022-09-09T14:42:01;20.20;99.90
13494;DHT22;6819;50.886;4.332;2022-09-09T14:44:28;20.20;99.90
13494;DHT22;6819;50.886;4.332;2022-09-09T14:46:53;20.30;99.90
13494;DHT22;6819;50.886;4.332;2022-09-09T14:49:20;20.20;99.90
13494;DHT22;6819;50.886;4.332;2022-09-09T14:51:46;20.30;99.90
13494;DHT22;6819;50.886;4.332;2022-09-09T14:54:11;20.40;99.90
13494;DHT22;6819;50.886;4.332;2022-09-09T14:56:37;20.50;99.90
13494;DHT22;6819;50.886;4.332;2022-09-09T14:59:03;20.80;99.90
13494;DHT22;6819;50.886;4.332;2022-09-09T15:01:30;20.90;99.90
13494;DHT22;6819;50.886;4.332;2022-09-09T15:04:02;20.80;99.90
13494;DHT22;6819;50.886;4.332;2022-09-09T15:06:31;20.50;99.90
13494;DHT22;6819;50.886;4.332;2022-09-09T15:08:59;20.70;99.90
13494;DHT22;6819;50.886;4.332;2022-09-09T15:11:30;20.60;99.90
13494;DHT22;6819;50.886;4.332;2022-09-09T15:13:57;20.60;99.90
13494;DHT22;6819;50.886;4.332;2022-09-09T15:16:26;20.30;99.90
13494;DHT22;6819;50.886;4.332;2022-09-09T15:18:54;20.20;99.90
13494;DHT22;6819;50.886;4.332;2022-09-09T15:21:21;20.40;99.90
13494;DHT22;6819;50.886;4.332;2022-09-09T15:23:48;20.30;99.90
13494;DHT22;6819;50.886;4.332;2022-09-09T15:26:14;20.50;99.90
13494;DHT22;6819;50.886;4.332;2022-09-09T15:28:41;20.50;99.90
13494;DHT22;6819;50.886;4.332;2022-09-09T15:33:40;20.20;99.90
13494;DHT22;6819;50.886;4.332;2022-09-09T15:36:36;19.90;99.90
13494;DHT22;6819;50.886;4.332;2022-09-09T15:39:03;19.80;99.90
13494;DHT22;6819;50.886;4.332;2022-09-09T15:41:30;19.80;99.90
13494;DHT22;6819;50.886;4.332;2022-09-09T15:43:59;20.20;99.90
13494;DHT22;6819;50.886;4.332;2022-09-09T15:46:34;20.30;99.90
13494;DHT22;6819;50.886;4.332;2022-09-09T15:51:43;20.10;99.90
13494;DHT22;6819;50.886;4.332;2022-09-09T15:54:14;19.90;99.90
13494;DHT22;6819;50.886;4.332;2022-09-09T15:56:42;19.80;99.90
13494;DHT22;6819;50.886;4.332;2022-09-09T15:59:08;19.80;99.90
13494;DHT22;6819;50.886;4.332;2022-09-09T16:01:36;19.80;99.90
13494;DHT22;6819;50.886;4.332;2022-09-09T16:04:02;19.90;99.90
13494;DHT22;6819;50.886;4.332;2022-09-09T16:06:29;19.90;99.90
13494;DHT22;6819;50.886;4.332;2022-09-09T16:08:56;19.70;99.90
13494;DHT22;6819;50.886;4.332;2022-09-09T16:11:28;19.60;99.90
13494;DHT22;6819;50.886;4.332;2022-09-09T16:13:55;19.60;99.90
13494;DHT22;6819;50.886;4.332;2022-09-09T16:16:23;19.50;99.90
13494;DHT22;6819;50.886;4.332;2022-09-09T16:18:58;19.50;99.90
13494;DHT22;6819;50.886;4.332;2022-09-09T16:21:32;19.50;99.90
13494;DHT22;6819;50.886;4.332;2022-09-09T16:24:00;19.50;99.90
13494;DHT22;6819;50.886;4.332;2022-09-09T16:26:27;19.50;99.90
13494;DHT22;6819;50.886;4.332;2022-09-09T16:28:53;19.30;99.90
13494;DHT22;6819;50.886;4.332;2022-09-09T16:31:23;19.20;99.90
13494;DHT22;6819;50.886;4.332;2022-09-09T16:33:49;19.20;99.90
13494;DHT22;6819;50.886;4.332;2022-09-09T16:36:29;19.20;99.90
13494;DHT22;6819;50.886;4.332;2022-09-09T16:38:58;19.10;99.90
13494;DHT22;6819;50.886;4.332;2022-09-09T16:41:25;19.10;99.90
13494;DHT22;6819;50.886;4.332;2022-09-09T16:43:53;19.10;99.90
13494;DHT22;6819;50.886;4.332;2022-09-09T16:46:21;19.10;99.90
13494;DHT22;6819;50.886;4.332;2022-09-09T16:48:47;19.10;99.90
13494;DHT22;6819;50.886;4.332;2022-09-09T16:53:42;19.40;99.90
13494;DHT22;6819;50.886;4.332;2022-09-09T16:56:11;19.40;99.90
13494;DHT22;6819;50.886;4.332;2022-09-09T16:58:37;19.40;99.90
13494;DHT22;6819;50.886;4.332;2022-09-09T17:01:04;19.40;99.90
13494;DHT22;6819;50.886;4.332;2022-09-09T17:03:30;19.30;99.90
13494;DHT22;6819;50.886;4.332;2022-09-09T17:05:57;19.40;99.90
13494;DHT22;6819;50.886;4.332;2022-09-09T17:08:24;19.50;99.90
13494;DHT22;6819;50.886;4.332;2022-09-09T17:10:49;19.60;99.90
13494;DHT22;6819;50.886;4.332;2022-09-09T17:13:16;19.60;99.90
13494;DHT22;6819;50.886;4.332;2022-09-09T17:15:45;19.50;99.90
13494;DHT22;6819;50.886;4.332;2022-09-09T17:18:12;19.50;99.90
13494;DHT22;6819;50.886;4.332;2022-09-09T17:20:41;19.30;99.90
13494;DHT22;6819;50.886;4.332;2022-09-09T17:23:08;19.30;99.90
13494;DHT22;6819;50.886;4.332;2022-09-09T17:25:35;19.10;99.90
13494;DHT22;6819;50.886;4.332;2022-09-09T17:28:01;19.00;99.90
13494;DHT22;6819;50.886;4.332;2022-09-09T17:30:27;19.00;99.90
13494;DHT22;6819;50.886;4.332;2022-09-09T17:32:53;18.90;99.90
13494;DHT22;6819;50.886;4.332;2022-09-09T17:35:19;18.90;99.90
13494;DHT22;6819;50.886;4.332;2022-09-09T17:37:45;18.70;99.90
13494;DHT22;6819;50.886;4.332;2022-09-09T17:40:11;18.50;99.90
13494;DHT22;6819;50.886;4.332;2022-09-09T17:42:37;18.50;99.90
13494;DHT22;6819;50.886;4.332;2022-09-09T17:45:03;18.30;99.90
13494;DHT22;6819;50.886;4.332;2022-09-09T17:47:29;18.30;99.90
13494;DHT22;6819;50.886;4.332;2022-09-09T17:49:56;18.30;99.90
13494;DHT22;6819;50.886;4.332;2022-09-09T17:52:22;18.10;99.90
13494;DHT22;6819;50.886;4.332;2022-09-09T17:54:49;18.00;99.90
13494;DHT22;6819;50.886;4.332;2022-09-09T17:57:15;18.00;99.90
13494;DHT22;6819;50.886;4.332;2022-09-09T17:59:44;17.90;99.90
13494;DHT22;6819;50.886;4.332;2022-09-09T18:02:13;17.90;99.90
13494;DHT22;6819;50.886;4.332;2022-09-09T18:04:38;17.90;99.90
13494;DHT22;6819;50.886;4.332;2022-09-09T18:07:04;17.80;99.90
13494;DHT22;6819;50.886;4.332;2022-09-09T18:09:30;17.80;99.90
13494;DHT22;6819;50.886;4.332;2022-09-09T18:11:57;17.70;99.90
13494;DHT22;6819;50.886;4.332;2022-09-09T18:14:32;17.60;99.90
13494;DHT22;6819;50.886;4.332;2022-09-09T18:17:00;17.60;99.90
13494;DHT22;6819;50.886;4.332;2022-09-09T18:19:28;17.50;99.90
13494;DHT22;6819;50.886;4.332;2022-09-09T18:21:55;17.50;99.90
13494;DHT22;6819;50.886;4.332;2022-09-09T18:24:21;17.50;99.90